createdAt,value
2016-12-12T00:00:12.669Z,959.87
2016-12-12T00:01:12.741Z,959.93
2016-12-12T00:02:11.889Z,959.96
2016-12-12T00:03:13.503Z,959.97
2016-12-12T00:04:11.193Z,959.97
2016-12-12T00:05:13.039Z,959.93
2016-12-12T00:06:16.534Z,959.93
2016-12-12T00:07:13.298Z,959.98
2016-12-12T00:08:13.141Z,960.01
2016-12-12T00:09:12.856Z,960.00
2016-12-12T00:10:13.644Z,959.97
2016-12-12T00:11:13.136Z,959.98
2016-12-12T00:12:12.563Z,959.96
2016-12-12T00:13:13.081Z,959.99
2016-12-12T00:14:12.184Z,959.99
2016-12-12T00:15:13.401Z,960.04
2016-12-12T00:16:13.566Z,959.97
2016-12-12T00:17:13.188Z,959.95
2016-12-12T00:18:12.773Z,959.90
2016-12-12T00:19:10.694Z,959.89
2016-12-12T00:20:12.776Z,959.97
2016-12-12T00:21:13.421Z,959.93
2016-12-12T00:22:12.385Z,959.93
2016-12-12T00:23:14.049Z,959.99
2016-12-12T00:24:12.149Z,959.98
2016-12-12T00:25:13.434Z,959.96
2016-12-12T00:26:12.502Z,960.00
2016-12-12T00:27:12.631Z,959.99
2016-12-12T00:28:12.679Z,959.97
2016-12-12T00:29:13.357Z,960.01
2016-12-12T00:30:12.315Z,960.04
2016-12-12T00:31:14.119Z,960.08
2016-12-12T00:32:12.997Z,960.11
2016-12-12T00:33:12.018Z,960.04
2016-12-12T00:34:12.642Z,960.03
2016-12-12T00:35:14.027Z,960.08
2016-12-12T00:36:12.634Z,960.07
2016-12-12T00:37:13.651Z,960.07
2016-12-12T00:38:12.746Z,960.10
2016-12-12T00:39:13.606Z,960.11
2016-12-12T00:40:13.306Z,960.07
2016-12-12T00:41:09.853Z,960.09
2016-12-12T00:42:12.231Z,960.05
2016-12-12T00:43:12.267Z,960.09
2016-12-12T00:44:10.423Z,960.09
2016-12-12T00:45:12.508Z,960.11
2016-12-12T00:46:13.035Z,960.13
2016-12-12T00:47:18.761Z,960.06
2016-12-12T00:48:11.936Z,960.11
2016-12-12T00:49:13.607Z,960.08
2016-12-12T00:50:13.271Z,960.11
2016-12-12T00:51:10.967Z,960.12
2016-12-12T00:52:12.130Z,960.15
2016-12-12T00:53:10.612Z,960.12
2016-12-12T00:54:12.596Z,960.13
2016-12-12T00:55:10.095Z,960.06
2016-12-12T00:56:11.124Z,960.09
2016-12-12T00:57:10.882Z,960.10
2016-12-12T00:58:12.682Z,960.13
2016-12-12T00:59:15.734Z,960.17
2016-12-12T01:00:13.028Z,960.19
2016-12-12T01:01:13.828Z,960.19
2016-12-12T01:02:13.796Z,960.18
2016-12-12T01:03:11.755Z,960.16
2016-12-12T01:04:13.123Z,960.17
2016-12-12T01:05:10.653Z,960.19
2016-12-12T01:06:14.497Z,960.21
2016-12-12T01:07:13.952Z,960.22
2016-12-12T01:08:12.235Z,960.22
2016-12-12T01:09:14.215Z,960.24
2016-12-12T01:10:14.129Z,960.24
2016-12-12T01:11:13.839Z,960.24
2016-12-12T01:12:12.951Z,960.24
2016-12-12T01:13:12.433Z,960.19
2016-12-12T01:14:11.370Z,960.20
2016-12-12T01:15:16.805Z,960.19
2016-12-12T01:16:13.944Z,960.24
2016-12-12T01:17:12.809Z,960.18
2016-12-12T01:18:13.779Z,960.17
2016-12-12T01:19:13.844Z,960.15
2016-12-12T01:20:13.226Z,960.15
2016-12-12T01:21:13.865Z,960.17
2016-12-12T01:22:11.837Z,960.17
2016-12-12T01:23:13.447Z,960.14
2016-12-12T01:24:13.748Z,960.14
2016-12-12T01:25:11.939Z,960.11
2016-12-12T01:26:18.103Z,960.13
2016-12-12T01:27:13.239Z,960.08
2016-12-12T01:28:15.185Z,960.07
2016-12-12T01:29:14.505Z,960.07
2016-12-12T01:30:11.505Z,960.08
2016-12-12T01:31:11.438Z,960.11
2016-12-12T01:32:12.836Z,960.15
2016-12-12T01:33:13.601Z,960.13
2016-12-12T01:34:13.078Z,960.16
2016-12-12T01:35:13.931Z,960.19
2016-12-12T01:36:12.449Z,960.12
2016-12-12T01:37:13.116Z,960.11
2016-12-12T01:38:10.391Z,960.09
2016-12-12T01:39:14.031Z,960.09
2016-12-12T01:40:12.659Z,960.11
2016-12-12T01:41:15.528Z,960.15
2016-12-12T01:42:13.648Z,960.16
2016-12-12T01:43:13.221Z,960.15
2016-12-12T01:44:12.857Z,960.18
2016-12-12T01:45:13.142Z,960.13
2016-12-12T01:46:12.680Z,960.17
2016-12-12T01:47:13.520Z,960.13
2016-12-12T01:48:14.235Z,960.07
2016-12-12T01:49:13.240Z,960.04
2016-12-12T01:50:13.999Z,960.02
2016-12-12T01:51:14.824Z,960.04
2016-12-12T01:52:13.105Z,960.00
2016-12-12T01:53:13.458Z,959.98
2016-12-12T01:54:11.828Z,959.97
2016-12-12T01:55:12.319Z,959.95
2016-12-12T01:56:12.312Z,959.89
2016-12-12T01:57:12.467Z,959.93
2016-12-12T01:58:14.977Z,959.96
2016-12-12T01:59:13.167Z,959.95
2016-12-12T02:00:15.526Z,959.95
2016-12-12T02:01:10.738Z,959.96
2016-12-12T02:02:13.324Z,959.97
2016-12-12T02:03:13.936Z,959.96
2016-12-12T02:04:13.199Z,959.99
2016-12-12T02:05:13.357Z,959.92
2016-12-12T02:06:10.641Z,959.95
2016-12-12T02:07:11.257Z,960.01
2016-12-12T02:08:12.801Z,960.00
2016-12-12T02:09:13.021Z,959.99
2016-12-12T02:10:11.088Z,959.97
2016-12-12T02:11:11.777Z,960.02
2016-12-12T02:12:14.070Z,960.05
2016-12-12T02:13:12.629Z,959.95
2016-12-12T02:14:14.908Z,959.99
2016-12-12T02:15:13.235Z,959.98
2016-12-12T02:16:12.933Z,959.96
2016-12-12T02:17:12.121Z,960.00
2016-12-12T02:18:12.200Z,959.98
2016-12-12T02:19:12.710Z,959.99
2016-12-12T02:20:12.655Z,960.04
2016-12-12T02:21:13.303Z,960.06
2016-12-12T02:22:12.848Z,960.00
2016-12-12T02:23:13.634Z,960.02
2016-12-12T02:24:14.046Z,960.06
2016-12-12T02:25:12.448Z,960.01
2016-12-12T02:26:11.678Z,960.06
2016-12-12T02:27:13.017Z,960.06
2016-12-12T02:28:12.178Z,960.03
2016-12-12T02:29:13.926Z,960.00
2016-12-12T02:30:12.795Z,960.07
2016-12-12T02:31:12.801Z,960.06
2016-12-12T02:32:13.442Z,960.05
2016-12-12T02:33:13.174Z,960.06
2016-12-12T02:34:11.295Z,960.09
2016-12-12T02:35:11.386Z,960.06
2016-12-12T02:36:12.240Z,960.14
2016-12-12T02:37:12.249Z,960.13
2016-12-12T02:38:11.389Z,960.08
2016-12-12T02:39:12.739Z,960.17
2016-12-12T02:40:13.997Z,960.09
2016-12-12T02:41:13.882Z,960.17
2016-12-12T02:42:14.120Z,960.12
2016-12-12T02:43:13.285Z,960.12
2016-12-12T02:44:11.787Z,960.08
2016-12-12T02:45:13.530Z,960.07
2016-12-12T02:46:13.191Z,960.09
2016-12-12T02:47:12.618Z,960.07
2016-12-12T02:48:12.965Z,960.01
2016-12-12T02:49:12.480Z,960.06
2016-12-12T02:50:12.565Z,960.05
2016-12-12T02:51:13.587Z,960.07
2016-12-12T02:52:13.583Z,960.05
2016-12-12T02:53:14.008Z,960.11
2016-12-12T02:54:12.710Z,960.05
2016-12-12T02:55:12.692Z,960.06
2016-12-12T02:56:13.816Z,960.06
2016-12-12T02:57:12.436Z,960.08
2016-12-12T02:58:12.979Z,960.03
2016-12-12T02:59:12.860Z,960.07
2016-12-12T03:00:11.958Z,960.06
2016-12-12T03:01:12.216Z,960.06
2016-12-12T03:02:12.252Z,960.04
2016-12-12T03:03:12.838Z,960.08
2016-12-12T03:04:12.511Z,960.10
2016-12-12T03:05:12.685Z,960.08
2016-12-12T03:06:13.468Z,960.08
2016-12-12T03:07:14.052Z,960.05
2016-12-12T03:08:13.524Z,960.03
2016-12-12T03:09:14.697Z,960.06
2016-12-12T03:10:13.455Z,960.06
2016-12-12T03:11:13.019Z,960.03
2016-12-12T03:12:13.637Z,960.04
2016-12-12T03:13:12.787Z,960.01
2016-12-12T03:14:11.927Z,960.03
2016-12-12T03:15:09.401Z,960.05
2016-12-12T03:16:13.871Z,959.99
2016-12-12T03:17:12.740Z,960.01
2016-12-12T03:18:13.804Z,959.97
2016-12-12T03:19:11.740Z,959.99
2016-12-12T03:20:12.816Z,960.08
2016-12-12T03:21:12.529Z,960.08
2016-12-12T03:22:13.229Z,960.07
2016-12-12T03:23:13.105Z,960.00
2016-12-12T03:24:12.223Z,960.09
2016-12-12T03:25:12.668Z,960.07
2016-12-12T03:26:14.591Z,960.09
2016-12-12T03:27:13.115Z,960.03
2016-12-12T03:28:12.208Z,960.07
2016-12-12T03:29:10.463Z,960.03
2016-12-12T03:30:14.391Z,960.08
2016-12-12T03:31:12.952Z,960.05
2016-12-12T03:32:12.025Z,960.03
2016-12-12T03:33:13.402Z,960.06
2016-12-12T03:34:12.937Z,960.05
2016-12-12T03:35:11.990Z,960.05
2016-12-12T03:36:12.708Z,960.01
2016-12-12T03:37:14.167Z,960.03
2016-12-12T03:38:10.394Z,960.04
2016-12-12T03:39:10.739Z,960.12
2016-12-12T03:40:13.885Z,960.07
2016-12-12T03:41:10.664Z,960.04
2016-12-12T03:42:13.590Z,960.14
2016-12-12T03:43:12.493Z,960.12
2016-12-12T03:44:13.281Z,960.09
2016-12-12T03:45:12.877Z,960.11
2016-12-12T03:46:12.780Z,960.07
2016-12-12T03:47:12.007Z,960.12
2016-12-12T03:48:13.706Z,960.13
2016-12-12T03:49:13.549Z,960.06
2016-12-12T03:50:13.042Z,960.07
2016-12-12T03:51:12.590Z,960.06
2016-12-12T03:52:13.262Z,960.06
2016-12-12T03:53:13.398Z,960.06
2016-12-12T03:54:12.932Z,960.06
2016-12-12T03:55:12.576Z,960.06
2016-12-12T03:56:12.658Z,960.05
2016-12-12T03:57:12.688Z,960.06
2016-12-12T03:58:13.450Z,960.04
2016-12-12T03:59:14.043Z,960.04
2016-12-12T04:00:13.780Z,960.01
2016-12-12T04:01:12.362Z,960.01
2016-12-12T04:02:10.644Z,960.04
2016-12-12T04:03:12.650Z,960.10
2016-12-12T04:04:13.144Z,960.03
2016-12-12T04:05:10.435Z,960.01
2016-12-12T04:06:12.626Z,960.05
2016-12-12T04:07:13.780Z,960.05
2016-12-12T04:08:09.391Z,960.05
2016-12-12T04:09:12.527Z,960.09
2016-12-12T04:10:14.517Z,960.12
2016-12-12T04:11:12.518Z,960.16
2016-12-12T04:12:12.879Z,960.14
2016-12-12T04:13:11.982Z,960.16
2016-12-12T04:14:12.988Z,960.13
2016-12-12T04:15:12.860Z,960.17
2016-12-12T04:16:12.480Z,960.16
2016-12-12T04:17:13.198Z,960.19
2016-12-12T04:18:13.474Z,960.28
2016-12-12T04:19:13.356Z,960.23
2016-12-12T04:20:18.018Z,960.26
2016-12-12T04:21:13.940Z,960.26
2016-12-12T04:22:12.020Z,960.22
2016-12-12T04:23:12.433Z,960.23
2016-12-12T04:24:13.128Z,960.24
2016-12-12T04:25:10.817Z,960.24
2016-12-12T04:26:12.553Z,960.28
2016-12-12T04:27:12.722Z,960.34
2016-12-12T04:28:13.502Z,960.35
2016-12-12T04:29:13.391Z,960.34
2016-12-12T04:30:13.527Z,960.35
2016-12-12T04:31:13.239Z,960.34
2016-12-12T04:32:12.849Z,960.37
2016-12-12T04:33:12.470Z,960.42
2016-12-12T04:34:12.855Z,960.36
2016-12-12T04:35:11.956Z,960.36
2016-12-12T04:36:13.828Z,960.37
2016-12-12T04:37:11.920Z,960.32
2016-12-12T04:38:13.139Z,960.35
2016-12-12T04:39:12.639Z,960.33
2016-12-12T04:40:13.203Z,960.34
2016-12-12T04:41:13.144Z,960.38
2016-12-12T04:42:12.884Z,960.37
2016-12-12T04:43:13.368Z,960.41
2016-12-12T04:44:19.867Z,960.39
2016-12-12T04:45:12.406Z,960.41
2016-12-12T04:46:13.044Z,960.35
2016-12-12T04:47:10.850Z,960.40
2016-12-12T04:48:13.476Z,960.39
2016-12-12T04:49:14.843Z,960.39
2016-12-12T04:50:10.221Z,960.34
2016-12-12T04:51:12.956Z,960.33
2016-12-12T04:52:12.195Z,960.35
2016-12-12T04:53:12.169Z,960.36
2016-12-12T04:54:10.404Z,960.41
2016-12-12T04:55:11.132Z,960.39
2016-12-12T04:56:12.300Z,960.42
2016-12-12T04:57:14.025Z,960.39
2016-12-12T04:58:12.685Z,960.42
2016-12-12T04:59:12.685Z,960.38
2016-12-12T05:00:11.883Z,960.39
2016-12-12T05:01:12.512Z,960.40
2016-12-12T05:02:13.253Z,960.41
2016-12-12T05:03:11.528Z,960.40
2016-12-12T05:04:17.801Z,960.40
2016-12-12T05:05:12.426Z,960.34
2016-12-12T05:06:12.752Z,960.39
2016-12-12T05:07:12.721Z,960.40
2016-12-12T05:08:14.477Z,960.41
2016-12-12T05:09:14.177Z,960.39
2016-12-12T05:10:13.695Z,960.36
2016-12-12T05:11:12.769Z,960.43
2016-12-12T05:12:12.023Z,960.42
2016-12-12T05:13:12.896Z,960.41
2016-12-12T05:14:12.433Z,960.49
2016-12-12T05:15:12.943Z,960.45
2016-12-12T05:16:12.513Z,960.47
2016-12-12T05:17:12.784Z,960.50
2016-12-12T05:18:11.670Z,960.55
2016-12-12T05:19:12.483Z,960.56
2016-12-12T05:20:11.301Z,960.53
2016-12-12T05:21:12.887Z,960.56
2016-12-12T05:22:12.579Z,960.57
2016-12-12T05:23:11.207Z,960.59
2016-12-12T05:24:12.525Z,960.55
2016-12-12T05:25:17.516Z,960.57
2016-12-12T05:26:12.574Z,960.58
2016-12-12T05:27:10.708Z,960.59
2016-12-12T05:28:09.264Z,960.56
2016-12-12T05:29:12.721Z,960.60
2016-12-12T05:30:13.624Z,960.59
2016-12-12T05:31:14.434Z,960.54
2016-12-12T05:32:13.001Z,960.58
2016-12-12T05:33:10.654Z,960.61
2016-12-12T05:34:12.087Z,960.63
2016-12-12T05:35:13.561Z,960.65
2016-12-12T05:36:13.378Z,960.57
2016-12-12T05:37:12.434Z,960.58
2016-12-12T05:38:12.676Z,960.62
2016-12-12T05:39:13.403Z,960.61
2016-12-12T05:40:11.393Z,960.59
2016-12-12T05:41:13.993Z,960.63
2016-12-12T05:42:11.244Z,960.61
2016-12-12T05:43:10.749Z,960.67
2016-12-12T05:44:17.603Z,960.67
2016-12-12T05:45:13.177Z,960.62
2016-12-12T05:46:12.660Z,960.63
2016-12-12T05:47:12.565Z,960.69
2016-12-12T05:48:13.613Z,960.68
2016-12-12T05:49:12.767Z,960.69
2016-12-12T05:50:11.977Z,960.73
2016-12-12T05:51:12.627Z,960.75
2016-12-12T05:52:12.653Z,960.72
2016-12-12T05:53:10.911Z,960.79
2016-12-12T05:54:12.788Z,960.77
2016-12-12T05:55:12.368Z,960.77
2016-12-12T05:56:12.352Z,960.78
2016-12-12T05:57:10.998Z,960.83
2016-12-12T05:58:12.566Z,960.79
2016-12-12T05:59:13.069Z,960.80
2016-12-12T06:00:13.912Z,960.77
2016-12-12T06:01:11.954Z,960.78
2016-12-12T06:02:12.929Z,960.80
2016-12-12T06:03:10.206Z,960.86
2016-12-12T06:04:12.793Z,960.82
2016-12-12T06:05:11.962Z,960.81
2016-12-12T06:06:12.983Z,960.82
2016-12-12T06:07:12.882Z,960.80
2016-12-12T06:08:13.832Z,960.83
2016-12-12T06:09:10.884Z,960.82
2016-12-12T06:10:12.497Z,960.81
2016-12-12T06:11:12.546Z,960.81
2016-12-12T06:12:12.634Z,960.85
2016-12-12T06:13:13.264Z,960.90
2016-12-12T06:14:10.559Z,960.87
2016-12-12T06:15:12.619Z,960.85
2016-12-12T06:16:13.928Z,960.88
2016-12-12T06:17:12.081Z,960.87
2016-12-12T06:18:11.395Z,960.90
2016-12-12T06:19:12.472Z,960.87
2016-12-12T06:20:13.711Z,960.87
2016-12-12T06:21:12.938Z,960.79
2016-12-12T06:22:10.845Z,960.86
2016-12-12T06:23:12.049Z,960.92
2016-12-12T06:24:12.276Z,960.90
2016-12-12T06:25:12.525Z,960.91
2016-12-12T06:26:13.286Z,960.90
2016-12-12T06:27:12.372Z,960.91
2016-12-12T06:28:13.331Z,960.95
2016-12-12T06:29:14.918Z,960.94
2016-12-12T06:30:12.134Z,960.95
2016-12-12T06:31:12.852Z,960.94
2016-12-12T06:32:12.668Z,960.95
2016-12-12T06:33:12.823Z,960.97
2016-12-12T06:34:12.531Z,961.05
2016-12-12T06:35:13.285Z,961.04
2016-12-12T06:36:13.091Z,961.10
2016-12-12T06:37:12.735Z,961.09
2016-12-12T06:38:11.746Z,961.09
2016-12-12T06:39:13.642Z,961.17
2016-12-12T06:40:13.066Z,961.13
2016-12-12T06:41:13.904Z,961.11
2016-12-12T06:42:12.099Z,961.16
2016-12-12T06:43:13.407Z,961.13
2016-12-12T06:44:11.842Z,961.12
2016-12-12T06:45:12.528Z,961.17
2016-12-12T06:46:12.684Z,961.16
2016-12-12T06:47:12.757Z,961.20
2016-12-12T06:48:12.611Z,961.23
2016-12-12T06:49:13.079Z,961.30
2016-12-12T06:50:12.684Z,961.34
2016-12-12T06:51:13.145Z,961.30
2016-12-12T06:52:12.326Z,961.32
2016-12-12T06:53:12.419Z,961.35
2016-12-12T06:54:11.470Z,961.35
2016-12-12T06:55:13.028Z,961.33
2016-12-12T06:56:12.113Z,961.37
2016-12-12T06:57:12.158Z,961.34
2016-12-12T06:58:12.832Z,961.32
2016-12-12T06:59:12.349Z,961.42
2016-12-12T07:00:10.824Z,961.40
2016-12-12T07:01:13.189Z,961.39
2016-12-12T07:02:12.918Z,961.39
2016-12-12T07:03:12.089Z,961.47
2016-12-12T07:04:13.741Z,961.47
2016-12-12T07:05:13.322Z,961.43
2016-12-12T07:06:12.837Z,961.51
2016-12-12T07:07:11.895Z,961.44
2016-12-12T07:08:12.033Z,961.45
2016-12-12T07:09:11.967Z,961.42
2016-12-12T07:10:12.542Z,961.47
2016-12-12T07:11:12.442Z,961.42
2016-12-12T07:12:12.359Z,961.47
2016-12-12T07:13:12.745Z,961.48
2016-12-12T07:14:13.655Z,961.52
2016-12-12T07:15:10.887Z,961.50
2016-12-12T07:16:12.586Z,961.59
2016-12-12T07:17:12.614Z,961.59
2016-12-12T07:18:12.732Z,961.62
2016-12-12T07:19:11.975Z,961.65
2016-12-12T07:20:12.657Z,961.66
2016-12-12T07:21:14.340Z,961.67
2016-12-12T07:22:12.973Z,961.68
2016-12-12T07:23:11.952Z,961.63
2016-12-12T07:24:12.586Z,961.70
2016-12-12T07:25:11.482Z,961.66
2016-12-12T07:26:13.627Z,961.64
2016-12-12T07:27:12.569Z,961.70
2016-12-12T07:28:13.120Z,961.67
2016-12-12T07:29:09.727Z,961.64
2016-12-12T07:30:11.081Z,961.69
2016-12-12T07:31:12.093Z,961.68
2016-12-12T07:32:12.624Z,961.69
2016-12-12T07:33:14.214Z,961.66
2016-12-12T07:34:12.335Z,961.69
2016-12-12T07:35:10.525Z,961.70
2016-12-12T07:36:12.727Z,961.70
2016-12-12T07:37:12.812Z,961.75
2016-12-12T07:38:09.940Z,961.73
2016-12-12T07:39:14.846Z,961.70
2016-12-12T07:40:12.777Z,961.71
2016-12-12T07:41:14.659Z,961.79
2016-12-12T07:42:13.517Z,961.79
2016-12-12T07:43:12.822Z,961.84
2016-12-12T07:44:18.064Z,961.82
2016-12-12T07:45:10.505Z,961.83
2016-12-12T07:46:12.645Z,961.78
2016-12-12T07:47:13.896Z,961.78
2016-12-12T07:48:12.437Z,961.83
2016-12-12T07:49:14.603Z,961.84
2016-12-12T07:50:13.527Z,961.85
2016-12-12T07:51:12.954Z,961.83
2016-12-12T07:52:10.242Z,961.85
2016-12-12T07:53:12.514Z,961.88
2016-12-12T07:54:12.959Z,961.84
2016-12-12T07:55:09.399Z,961.87
2016-12-12T07:56:12.417Z,961.90
2016-12-12T07:57:12.579Z,961.91
2016-12-12T07:58:13.369Z,961.99
2016-12-12T07:59:12.425Z,961.99
2016-12-12T08:00:13.288Z,961.94
2016-12-12T08:01:13.234Z,962.00
2016-12-12T08:02:13.359Z,962.02
2016-12-12T08:03:10.422Z,962.02
2016-12-12T08:04:13.173Z,962.04
2016-12-12T08:05:12.123Z,962.01
2016-12-12T08:06:12.126Z,962.01
2016-12-12T08:07:14.007Z,962.04
2016-12-12T08:08:12.928Z,962.09
2016-12-12T08:09:11.951Z,962.06
2016-12-12T08:10:12.889Z,962.05
2016-12-12T08:11:13.024Z,962.08
2016-12-12T08:12:12.594Z,962.11
2016-12-12T08:13:15.034Z,962.10
2016-12-12T08:14:11.974Z,962.15
2016-12-12T08:15:12.025Z,962.12
2016-12-12T08:16:12.559Z,962.12
2016-12-12T08:17:15.044Z,962.13
2016-12-12T08:18:12.171Z,962.12
2016-12-12T08:19:12.927Z,962.07
2016-12-12T08:20:12.551Z,962.15
2016-12-12T08:21:14.355Z,962.08
2016-12-12T08:22:12.445Z,962.10
2016-12-12T08:23:12.560Z,962.08
2016-12-12T08:24:12.596Z,962.15
2016-12-12T08:25:11.551Z,962.13
2016-12-12T08:26:13.204Z,962.19
2016-12-12T08:27:12.642Z,962.20
2016-12-12T08:28:13.025Z,962.25
2016-12-12T08:29:12.566Z,962.22
2016-12-12T08:30:13.145Z,962.24
2016-12-12T08:31:09.884Z,962.27
2016-12-12T08:32:12.181Z,962.28
2016-12-12T08:33:12.958Z,962.27
2016-12-12T08:34:10.995Z,962.30
2016-12-12T08:35:12.603Z,962.23
2016-12-12T08:36:13.158Z,962.27
2016-12-12T08:37:12.668Z,962.27
2016-12-12T08:38:11.287Z,962.25
2016-12-12T08:39:13.032Z,962.24
2016-12-12T08:40:12.283Z,962.24
2016-12-12T08:41:12.408Z,962.27
2016-12-12T08:42:12.487Z,962.30
2016-12-12T08:43:13.027Z,962.30
2016-12-12T08:44:12.981Z,962.27
2016-12-12T08:45:12.639Z,962.27
2016-12-12T08:46:12.737Z,962.27
2016-12-12T08:47:11.745Z,962.31
2016-12-12T08:48:13.567Z,962.32
2016-12-12T08:49:12.942Z,962.28
2016-12-12T08:50:12.693Z,962.36
2016-12-12T08:51:12.820Z,962.29
2016-12-12T08:52:12.882Z,962.27
2016-12-12T08:53:11.989Z,962.32
2016-12-12T08:54:12.097Z,962.31
2016-12-12T08:55:09.486Z,962.34
2016-12-12T08:56:14.404Z,962.33
2016-12-12T08:57:12.408Z,962.36
2016-12-12T08:58:13.341Z,962.35
2016-12-12T08:59:12.749Z,962.36
2016-12-12T09:00:12.848Z,962.35
2016-12-12T09:01:11.930Z,962.38
2016-12-12T09:02:12.951Z,962.40
2016-12-12T09:03:11.898Z,962.41
2016-12-12T09:04:18.840Z,962.41
2016-12-12T09:05:12.547Z,962.43
2016-12-12T09:06:13.096Z,962.46
2016-12-12T09:07:10.379Z,962.47
2016-12-12T09:08:12.549Z,962.50
2016-12-12T09:09:12.378Z,962.50
2016-12-12T09:10:12.969Z,962.44
2016-12-12T09:11:12.049Z,962.53
2016-12-12T09:12:12.820Z,962.48
2016-12-12T09:13:12.892Z,962.49
2016-12-12T09:14:13.313Z,962.52
2016-12-12T09:15:13.246Z,962.54
2016-12-12T09:16:13.847Z,962.54
2016-12-12T09:17:13.849Z,962.55
2016-12-12T09:18:12.403Z,962.57
2016-12-12T09:19:14.165Z,962.57
2016-12-12T09:20:12.094Z,962.56
2016-12-12T09:21:12.559Z,962.56
2016-12-12T09:22:12.636Z,962.64
2016-12-12T09:23:13.227Z,962.63
2016-12-12T09:24:13.116Z,962.66
2016-12-12T09:25:13.607Z,962.67
2016-12-12T09:26:12.804Z,962.65
2016-12-12T09:27:13.609Z,962.68
2016-12-12T09:28:13.293Z,962.68
2016-12-12T09:29:12.675Z,962.67
2016-12-12T09:30:13.454Z,962.73
2016-12-12T09:31:14.056Z,962.69
2016-12-12T09:32:14.480Z,962.74
2016-12-12T09:33:14.232Z,962.76
2016-12-12T09:34:12.788Z,962.77
2016-12-12T09:35:12.812Z,962.73
2016-12-12T09:36:12.448Z,962.76
2016-12-12T09:37:13.130Z,962.73
2016-12-12T09:38:12.819Z,962.74
2016-12-12T09:39:12.428Z,962.74
2016-12-12T09:40:13.054Z,962.73
2016-12-12T09:41:12.668Z,962.71
2016-12-12T09:42:13.400Z,962.73
2016-12-12T09:43:11.277Z,962.71
2016-12-12T09:44:13.005Z,962.76
2016-12-12T09:45:13.848Z,962.70
2016-12-12T09:46:12.977Z,962.71
2016-12-12T09:47:10.118Z,962.72
2016-12-12T09:48:13.007Z,962.70
2016-12-12T09:49:12.113Z,962.74
2016-12-12T09:50:12.896Z,962.74
2016-12-12T09:51:12.329Z,962.77
2016-12-12T09:52:12.389Z,962.79
2016-12-12T09:53:11.427Z,962.82
2016-12-12T09:54:19.573Z,962.82
2016-12-12T09:55:11.586Z,962.83
2016-12-12T09:56:12.666Z,962.82
2016-12-12T09:57:12.665Z,962.80
2016-12-12T09:58:13.100Z,962.87
2016-12-12T09:59:13.683Z,962.81
2016-12-12T10:00:11.678Z,962.86
2016-12-12T10:01:10.909Z,962.85
2016-12-12T10:02:12.620Z,962.85
2016-12-12T10:03:12.585Z,962.88
2016-12-12T10:04:12.965Z,962.82
2016-12-12T10:05:12.100Z,962.85
2016-12-12T10:06:12.899Z,962.86
2016-12-12T10:07:12.765Z,962.82
2016-12-12T10:08:12.444Z,962.87
2016-12-12T10:09:12.510Z,962.88
2016-12-12T10:10:12.488Z,962.89
2016-12-12T10:11:13.113Z,962.86
2016-12-12T10:12:12.030Z,962.88
2016-12-12T10:13:12.507Z,962.87
2016-12-12T10:14:12.480Z,962.87
2016-12-12T10:15:13.019Z,962.91
2016-12-12T10:16:13.710Z,962.94
2016-12-12T10:17:13.057Z,962.98
2016-12-12T10:18:12.859Z,962.98
2016-12-12T10:19:11.974Z,962.95
2016-12-12T10:20:10.805Z,962.93
2016-12-12T10:21:12.167Z,963.00
2016-12-12T10:22:12.587Z,962.97
2016-12-12T10:23:13.680Z,963.00
2016-12-12T10:24:15.570Z,962.96
2016-12-12T10:25:12.563Z,963.00
2016-12-12T10:26:14.654Z,962.97
2016-12-12T10:27:13.505Z,962.98
2016-12-12T10:28:13.782Z,962.97
2016-12-12T10:29:12.431Z,962.97
2016-12-12T10:30:12.527Z,963.03
2016-12-12T10:31:13.143Z,962.99
2016-12-12T10:32:12.270Z,963.03
2016-12-12T10:33:12.173Z,963.02
2016-12-12T10:34:12.965Z,963.02
2016-12-12T10:35:11.969Z,963.02
2016-12-12T10:36:12.127Z,963.04
2016-12-12T10:37:12.799Z,963.06
2016-12-12T10:38:12.828Z,963.05
2016-12-12T10:39:12.429Z,963.06
2016-12-12T10:40:12.549Z,963.03
2016-12-12T10:41:13.118Z,963.02
2016-12-12T10:42:12.850Z,963.03
2016-12-12T10:43:12.618Z,963.05
2016-12-12T10:44:13.113Z,963.05
2016-12-12T10:45:12.887Z,963.03
2016-12-12T10:46:09.509Z,963.06
2016-12-12T10:47:13.047Z,963.09
2016-12-12T10:48:13.919Z,963.13
2016-12-12T10:49:10.986Z,963.12
2016-12-12T10:50:12.929Z,963.13
2016-12-12T10:51:09.129Z,963.13
2016-12-12T10:52:12.729Z,963.09
2016-12-12T10:53:12.719Z,963.14
2016-12-12T10:54:12.849Z,963.17
2016-12-12T10:55:11.805Z,963.13
2016-12-12T10:56:11.838Z,963.18
2016-12-12T10:57:12.012Z,963.17
2016-12-12T10:58:12.149Z,963.19
2016-12-12T10:59:11.087Z,963.16
2016-12-12T11:00:13.660Z,963.14
2016-12-12T11:01:14.324Z,963.18
2016-12-12T11:02:09.653Z,963.12
2016-12-12T11:03:12.597Z,963.17
2016-12-12T11:04:12.666Z,963.12
2016-12-12T11:05:14.410Z,963.14
2016-12-12T11:06:13.021Z,963.12
2016-12-12T11:07:11.877Z,963.08
2016-12-12T11:08:18.400Z,963.13
2016-12-12T11:09:12.585Z,963.13
2016-12-12T11:10:12.718Z,963.16
2016-12-12T11:11:12.625Z,963.15
2016-12-12T11:12:14.287Z,963.14
2016-12-12T11:13:12.360Z,963.14
2016-12-12T11:14:14.045Z,963.12
2016-12-12T11:15:10.994Z,963.22
2016-12-12T11:16:12.127Z,963.16
2016-12-12T11:17:12.550Z,963.16
2016-12-12T11:18:12.974Z,963.22
2016-12-12T11:19:12.955Z,963.19
2016-12-12T11:20:11.079Z,963.22
2016-12-12T11:21:12.100Z,963.24
2016-12-12T11:22:13.019Z,963.22
2016-12-12T11:23:14.545Z,963.25
2016-12-12T11:24:12.749Z,963.25
2016-12-12T11:25:14.144Z,963.23
2016-12-12T11:26:12.924Z,963.22
2016-12-12T11:27:12.309Z,963.23
2016-12-12T11:28:12.271Z,963.21
2016-12-12T11:29:12.858Z,963.16
2016-12-12T11:30:10.157Z,963.18
2016-12-12T11:31:12.808Z,963.18
2016-12-12T11:32:13.650Z,963.16
2016-12-12T11:33:12.610Z,963.19
2016-12-12T11:34:12.639Z,963.13
2016-12-12T11:35:13.249Z,963.14
2016-12-12T11:36:12.819Z,963.13
2016-12-12T11:37:14.096Z,963.12
2016-12-12T11:38:13.125Z,963.14
2016-12-12T11:39:14.049Z,963.13
2016-12-12T11:40:11.286Z,963.14
2016-12-12T11:41:14.067Z,963.19
2016-12-12T11:42:11.113Z,963.13
2016-12-12T11:43:12.704Z,963.16
2016-12-12T11:44:12.805Z,963.12
2016-12-12T11:45:12.629Z,963.09
2016-12-12T11:46:10.668Z,963.07
2016-12-12T11:47:12.837Z,963.06
2016-12-12T11:48:11.825Z,963.07
2016-12-12T11:49:12.539Z,963.06
2016-12-12T11:50:13.013Z,963.08
2016-12-12T11:51:12.986Z,963.10
2016-12-12T11:52:12.556Z,963.11
2016-12-12T11:53:12.637Z,963.06
2016-12-12T11:54:10.681Z,963.09
2016-12-12T11:55:12.015Z,963.08
2016-12-12T11:56:12.606Z,963.12
2016-12-12T11:57:13.195Z,963.07
2016-12-12T11:58:13.287Z,963.14
2016-12-12T11:59:12.922Z,963.12
2016-12-12T12:00:11.835Z,963.10
2016-12-12T12:01:12.470Z,963.12
2016-12-12T12:02:14.266Z,963.08
2016-12-12T12:03:12.899Z,963.09
2016-12-12T12:04:12.438Z,963.08
2016-12-12T12:05:12.977Z,963.07
2016-12-12T12:06:12.013Z,963.06
2016-12-12T12:07:12.816Z,963.05
2016-12-12T12:08:13.525Z,963.07
2016-12-12T12:09:13.151Z,963.08
2016-12-12T12:10:12.812Z,963.06
2016-12-12T12:11:12.400Z,963.09
2016-12-12T12:12:09.943Z,963.07
2016-12-12T12:13:12.121Z,963.04
2016-12-12T12:14:12.169Z,963.06
2016-12-12T12:15:13.023Z,963.07
2016-12-12T12:16:12.779Z,963.06
2016-12-12T12:17:12.512Z,963.05
2016-12-12T12:18:13.259Z,963.08
2016-12-12T12:19:13.116Z,963.05
2016-12-12T12:20:12.090Z,963.10
2016-12-12T12:21:12.068Z,963.12
2016-12-12T12:22:09.898Z,963.10
2016-12-12T12:23:10.381Z,963.09
2016-12-12T12:24:12.335Z,963.11
2016-12-12T12:25:13.044Z,963.12
2016-12-12T12:26:10.358Z,963.14
2016-12-12T12:27:13.309Z,963.14
2016-12-12T12:28:12.278Z,963.10